• Join FlightAware (Why Join?)
  • Login
  • US Flag 
11:38PM EDT


 

Airport Tracker/Info


-or-


 

Live Flight TrackerFlight Track Log ✈ N999TF ✈ 27-Mar-2014 ✈ S21 - KUAO

Flight Track Log - Related Links

Times and Time Zones

All times are in EDT time to prevent confusion due to time zone crossing. See the N999TF flight status page for this flight to view local times or setup timezone preferences in your user account.

Time Position Orientation Groundspeed Altitude Reporting Facility
EDT Latitude Longitude Course Direction KTS MPH feet Rate Location/Type
05:34PM 44.1883 -121.4081 20° North 158 182 14,400  Level Seattle Center
05:35PM 44.2333 -121.3850 20° North 165 190 14,400 -300 Level Seattle Center
05:36PM 44.2700 -121.4208 325° Northwest 171 197 13,900 -300 Descending Seattle Center
05:37PM 44.3019 -121.4650 315° West 165 190 13,900  Level Seattle Center
05:38PM 44.3322 -121.5075 315° West 157 181 13,900  Level Seattle Center
05:39PM 44.3619 -121.5500 314° West 156 180 13,900  Level Seattle Center
05:40PM 44.3919 -121.5908 316° Northwest 154 177 13,900  Level Seattle Center
05:41PM 44.4211 -121.6300 316° Northwest 148 170 13,900  Level Seattle Center
05:42PM 44.4511 -121.6703 316° Northwest 148 170 13,900  Level Seattle Center
05:43PM 44.4819 -121.7142 315° West 152 175 13,900  Level Seattle Center
05:44PM 44.5142 -121.7561 317° Northwest 156 180 13,900  Level Seattle Center
05:45PM 44.5425 -121.7939 316° Northwest 144 166 13,900  Level Seattle Center
05:46PM 44.5667 -121.8292 314° West 128 147 13,900  Level Seattle Center
05:47PM 44.6003 -121.8736 317° Northwest 138 159 13,900  Level Seattle Center
05:48PM 44.6303 -121.9128 317° Northwest 146 168 13,900  Level Seattle Center
05:49PM 44.6619 -121.9556 316° Northwest 155 178 13,900  Level Seattle Center
05:50PM 44.6933 -121.9961 317° Northwest 155 178 13,900  Level Seattle Center
05:51PM 44.7214 -122.0358 315° West 145 167 13,900 -300 Level Seattle Center
05:52PM 44.7525 -122.0761 317° Northwest 146 168 13,400 -600 Descending Seattle Center
05:53PM 44.7731 -122.1069 313° West 153 176 12,900 -840 Descending Seattle Center
05:53PM 44.7825 -122.1189 318° Northwest 150 173 12,600 -1,020 Descending Seattle Center
05:54PM 44.7972 -122.1394 315° West 157 181 12,200 -720 Descending Seattle Center
05:54PM 44.8144 -122.1619 317° Northwest 155 178 11,900 -600 Descending Seattle Center
05:55PM 44.8278 -122.1819 313° West 157 181 11,600 -720 Descending Seattle Center
05:55PM 44.8447 -122.2036 318° Northwest 155 178 11,200 -780 Descending Seattle Center
05:56PM 44.8578 -122.2214 316° Northwest 156 180 10,900 -300 Descending Seattle Center
05:56PM 44.8794 -122.2506 316° Northwest 156 180 10,900  Level Seattle Center
05:57PM 44.8953 -122.2761 311° West 146 168 10,900  Level Seattle Center
05:57PM 44.9072 -122.2897 321° Northwest 146 168 10,900 -420 Level Seattle Center
05:58PM 44.9250 -122.3158 314° West 145 167 10,500 -720 Descending Seattle Center
05:58PM 44.9369 -122.3333 314° West 151 174 10,200 -840 Descending Seattle Center
05:59PM 44.9542 -122.3619 310° West 156 180 9,700 -840 Descending Seattle Center
05:59PM 44.9667 -122.3778 318° Northwest 153 176 9,400 -900 Descending Seattle Center
06:00PM 44.9772 -122.4106 294° West 156 180 8,800 -900 Descending Seattle Center
06:00PM 44.9858 -122.4322 299° West 144 166 8,500 -840 Descending Seattle Center
06:01PM 44.9947 -122.4647 291° West 143 165 7,900 -840 Descending Seattle Center
06:01PM 45.0028 -122.4847 300° West 144 166 7,700 -780 Descending Seattle Center
06:02PM 45.0086 -122.5108 288° West 150 173 7,300 -900 Descending Seattle Center
06:03PM 45.0186 -122.5375 298° West 146 168 6,800 -1,200 Descending Seattle Center
06:03PM 45.0289 -122.5578 306° West 140 161 6,100 -1,500 Descending Seattle Center
06:04PM 45.0442 -122.5767 319° Northwest 136 157 5,300 -1,500 Descending Seattle Center
06:04PM 45.0525 -122.5881 316° Northwest 122 140 4,800 -1,320 Descending Seattle Center
06:05PM 45.0686 -122.6092 317° Northwest 125 144 4,000 -1,200 Descending Seattle Center
06:05PM 45.0772 -122.6144 337° Northwest 131 151 3,700 -600 Descending Seattle Center
06:06PM 45.1025 -122.6342 331° Northwest 127 146 3,400 -420 Descending Seattle Center